Destin, FL

4:57 AM CDT on May 27, 2015 (GMT -0500)
Hurlburt | | Change Station
CLOSE
Current Station
Airport
Location: Hurlburt Field,
Elevation: 39 ft
Nearby Weather Stations
Active Advisory: Coastal Hazard Statement

Elev 39 ft 30.43 °N, 86.69 °W | Updated 59 minutes ago

Partly Cloudy
Partly Cloudy
74 °F
Feels Like 74 °F
N
2
Wind Variable Wind from East

Today
High -- | Low -- °F
--% Chance of Precip.
Yesterday
High -- | Low -- °F
Precip. -- in
5:45 AM 7:40 PM
Waxing Gibbous, 66% visible
Pressure 30.13 in
Visibility 10.0 miles
Clouds Few 3000 ft
Dew Point 69 °F
Humidity 85%
Rainfall 0.00 in
Snow Depth Not available.
UV 0 out of 12
Pollen 4.80 out of 12
Air Quality Not available.
Flu Activity Sporadic
METAR KHRT 270858Z AUTO 08002KT 10SM FEW030 23/21 A3012 RMK AO2 SLP201 T02320206 53000 $

More Conditions Fewer Conditions

Pressure 30.13 in
Visibility 10.0 miles
Clouds Few 3000 ft
Dew Point 69 °F
Humidity 85%
Rainfall 0.00 in
Snow Depth Not available.
UV 0 out of 12
Pollen 4.80 out of 12
Air Quality Not available.
Flu Activity Sporadic
METAR KHRT 270858Z AUTO 08002KT 10SM FEW030 23/21 A3012 RMK AO2 SLP201 T02320206 53000 $

More Conditions Fewer Conditions

10-Day Weather Forecast

Almanac

Astronomy

May. 27, 2015 Rise Set
Actual Time
Civil Twilight
Nautical Twilight
Astronomical Twilight
Moon
Length of Visible Light
Length of Day
Tomorrow will be .
, % of the Moon is Illuminated

Today's Extremes

State Highs State Lows

Community

WunderPhotos

Upload Photos

1,824,635 photos uploaded!

WunderBlogs® & News

Nearby

Air Quality

  Air Quality AQ Index Pollutant
Not available.

Snow Depth

Station Depth Elevation

Earthquake Activity

City Distance Mag. Time & Date
Minimum magnitude displayed is 2.5.

Coastal Water Temperatures

Place Temperature

Stations

Nearby Weather Stations

Station Location Temp. Windchill Dew Point Humidity Wind Precip. Elev Updated Type
                   
Coastal Hazard Statement
Statement as of 10:32 PM CDT on May 26, 2015

... High rip current risk now in effect until 9 am CDT Wednesday...

* timing... through early Wednesday morning.

* Impacts... frequent life-threatening rip currents are expected.
The surf will be dangerous for all levels of swimmers.

Precautionary/preparedness actions...

There is a high risk of rip currents.

Rip currents are life-threatening to anyone entering the surf. If
you become caught in a rip current... Yell and wave your arms for
help and remain calm. Do not exhaust yourself and stay afloat
while waiting for help. If you have to swim out of a rip
current... swim parallel to shore and back toward the beach when
possible. Do not attempt to swim directly against a rip current
as you will tire quickly.